createdAt,value
2018-03-30T00:00:46.028Z,77.20
2018-03-30T00:03:13.428Z,77.30
2018-03-30T00:05:40.943Z,77.60
2018-03-30T00:08:09.164Z,78.00
2018-03-30T00:10:42.369Z,78.00
2018-03-30T00:13:09.809Z,77.70
2018-03-30T00:15:38.048Z,77.90
2018-03-30T00:18:05.556Z,77.70
2018-03-30T00:20:32.996Z,77.90
2018-03-30T00:23:00.459Z,78.50
2018-03-30T00:25:27.923Z,77.80
2018-03-30T00:27:55.368Z,77.60
2018-03-30T00:30:22.848Z,77.20
2018-03-30T00:32:50.299Z,77.10
2018-03-30T00:35:17.769Z,77.10
2018-03-30T00:37:45.221Z,77.40
2018-03-30T00:40:13.493Z,77.50
2018-03-30T00:42:40.953Z,77.40
2018-03-30T00:45:09.226Z,77.60
2018-03-30T00:47:36.679Z,77.50
2018-03-30T00:50:04.207Z,77.50
2018-03-30T00:52:32.425Z,77.70
2018-03-30T00:54:59.899Z,77.20
2018-03-30T00:57:27.381Z,77.20
2018-03-30T00:59:54.875Z,77.20
2018-03-30T01:02:22.356Z,77.10
2018-03-30T01:04:49.820Z,77.10
2018-03-30T01:07:17.283Z,77.10
2018-03-30T01:09:44.756Z,76.80
2018-03-30T01:12:13.721Z,77.10
2018-03-30T01:14:41.179Z,76.60
2018-03-30T01:17:10.177Z,76.90
2018-03-30T01:19:37.641Z,76.90
2018-03-30T01:22:05.111Z,77.10
2018-03-30T01:24:33.326Z,77.20
2018-03-30T01:27:00.795Z,77.20
2018-03-30T01:29:28.267Z,77.30
2018-03-30T01:31:55.754Z,77.20
2018-03-30T01:34:23.192Z,77.40
2018-03-30T01:36:50.747Z,77.60
2018-03-30T01:39:18.975Z,77.90
2018-03-30T01:41:46.431Z,77.70
2018-03-30T01:44:13.884Z,77.60
2018-03-30T01:46:41.363Z,77.40
2018-03-30T01:49:08.856Z,77.50
2018-03-30T01:51:36.321Z,77.10
2018-03-30T01:54:03.766Z,77.30
2018-03-30T01:56:31.239Z,77.10
2018-03-30T01:58:58.709Z,76.50
2018-03-30T02:01:26.157Z,76.60
2018-03-30T02:03:54.403Z,76.20
2018-03-30T02:06:21.856Z,76.20
2018-03-30T02:08:49.325Z,76.20
2018-03-30T02:11:16.785Z,76.10
2018-03-30T02:13:44.247Z,75.80
2018-03-30T02:16:11.701Z,75.40
2018-03-30T02:18:39.934Z,74.70
2018-03-30T02:21:07.385Z,74.70
2018-03-30T02:23:34.861Z,74.10
2018-03-30T02:26:02.323Z,73.80
2018-03-30T02:28:29.784Z,72.90
2018-03-30T02:30:57.237Z,73.00
2018-03-30T02:33:24.770Z,72.80
2018-03-30T02:35:52.225Z,73.40
2018-03-30T02:38:19.709Z,73.80
2018-03-30T02:40:47.157Z,74.00
2018-03-30T02:43:14.611Z,74.30
2018-03-30T02:45:42.069Z,73.80
2018-03-30T02:48:09.522Z,74.30
2018-03-30T02:50:37.024Z,74.80
2018-03-30T02:53:04.501Z,74.20
2018-03-30T02:55:32.002Z,74.50
2018-03-30T02:57:59.444Z,74.60
2018-03-30T03:00:26.907Z,74.60
2018-03-30T03:02:54.408Z,74.50
2018-03-30T03:05:21.889Z,74.70
2018-03-30T03:07:49.367Z,74.90
2018-03-30T03:10:16.832Z,75.20
2018-03-30T03:12:44.291Z,75.50
2018-03-30T03:15:11.734Z,75.90
2018-03-30T03:17:39.205Z,75.90
2018-03-30T03:20:06.669Z,76.20
2018-03-30T03:22:34.140Z,76.20
2018-03-30T03:25:01.618Z,76.40
2018-03-30T03:27:29.077Z,76.40
2018-03-30T03:29:56.515Z,76.50
2018-03-30T03:32:23.990Z,76.60
2018-03-30T03:34:51.457Z,77.10
2018-03-30T03:37:18.912Z,77.60
2018-03-30T03:39:47.160Z,77.70
2018-03-30T03:42:14.608Z,77.70
2018-03-30T03:44:42.105Z,77.90
2018-03-30T03:47:09.558Z,77.80
2018-03-30T03:49:37.029Z,77.70
2018-03-30T03:52:04.513Z,77.80
2018-03-30T03:54:31.981Z,78.00
2018-03-30T03:56:59.428Z,78.30
2018-03-30T03:59:26.884Z,78.40
2018-03-30T04:01:55.074Z,78.50
2018-03-30T04:04:22.529Z,78.70
2018-03-30T04:06:50.006Z,78.80
2018-03-30T04:09:17.475Z,78.80
2018-03-30T04:11:44.940Z,78.80
2018-03-30T04:14:12.395Z,78.80
2018-03-30T04:16:39.849Z,78.90
2018-03-30T04:19:08.094Z,79.10
2018-03-30T04:21:35.570Z,79.10
2018-03-30T04:24:03.019Z,79.00
2018-03-30T04:26:30.462Z,78.80
2018-03-30T04:28:57.968Z,78.80
2018-03-30T04:31:25.412Z,78.90
2018-03-30T04:33:52.880Z,78.80
2018-03-30T04:36:20.335Z,78.50
2018-03-30T04:38:48.656Z,78.30
2018-03-30T04:41:16.870Z,78.70
2018-03-30T04:43:44.351Z,78.50
2018-03-30T04:46:11.808Z,79.20
2018-03-30T04:48:39.276Z,79.50
2018-03-30T04:51:06.730Z,79.70
2018-03-30T04:53:34.217Z,80.00
2018-03-30T04:56:01.824Z,80.00
2018-03-30T04:58:30.038Z,79.80
2018-03-30T05:00:57.513Z,79.80
2018-03-30T05:03:24.963Z,79.90
2018-03-30T05:05:53.220Z,80.10
2018-03-30T05:08:20.664Z,80.00
2018-03-30T05:10:48.119Z,80.00
2018-03-30T05:13:15.607Z,80.10
2018-03-30T05:15:43.093Z,80.30
2018-03-30T05:18:10.556Z,80.10
2018-03-30T05:20:38.012Z,80.10
2018-03-30T05:23:05.482Z,80.20
2018-03-30T05:25:32.961Z,80.50
2018-03-30T05:28:00.397Z,80.60
2018-03-30T05:30:27.882Z,80.70
2018-03-30T05:32:55.348Z,80.90
2018-03-30T05:35:22.812Z,81.00
2018-03-30T05:37:50.311Z,81.20
2018-03-30T05:40:17.760Z,81.40
2018-03-30T05:42:45.235Z,81.50
2018-03-30T05:45:12.696Z,81.50
2018-03-30T05:47:40.170Z,81.70
2018-03-30T05:50:07.650Z,81.90
2018-03-30T05:52:35.112Z,81.90
2018-03-30T05:55:02.589Z,82.30
2018-03-30T05:57:30.049Z,82.10
2018-03-30T05:59:57.494Z,82.00
2018-03-30T06:02:25.045Z,81.80
2018-03-30T06:04:53.273Z,81.50
2018-03-30T06:07:20.722Z,81.40
2018-03-30T06:09:48.193Z,81.20
2018-03-30T06:12:15.671Z,80.60
2018-03-30T06:14:43.133Z,80.30
2018-03-30T06:17:10.584Z,80.00
2018-03-30T06:19:38.061Z,80.00
2018-03-30T06:22:05.531Z,79.90
2018-03-30T06:24:33.029Z,79.90
2018-03-30T06:27:00.482Z,79.60
2018-03-30T06:29:28.601Z,79.40
2018-03-30T06:31:56.068Z,79.40
2018-03-30T06:34:23.521Z,79.30
2018-03-30T06:36:50.993Z,79.60
2018-03-30T06:39:18.441Z,79.60
2018-03-30T06:41:45.889Z,79.70
2018-03-30T06:44:14.154Z,79.90
2018-03-30T06:46:41.601Z,79.80
2018-03-30T06:49:09.108Z,80.10
2018-03-30T06:51:36.543Z,80.50
2018-03-30T06:54:04.005Z,80.60
2018-03-30T06:56:31.475Z,81.00
2018-03-30T06:58:58.927Z,81.20
2018-03-30T07:01:26.719Z,80.80
2018-03-30T07:03:54.209Z,80.50
2018-03-30T07:06:21.660Z,79.80
2018-03-30T07:08:49.141Z,79.30
2018-03-30T07:11:16.601Z,79.00
2018-03-30T07:13:44.088Z,79.10
2018-03-30T07:16:11.580Z,79.10
2018-03-30T07:18:39.000Z,78.70
2018-03-30T07:21:06.492Z,77.80
2018-03-30T07:23:33.948Z,77.70
2018-03-30T07:26:01.410Z,77.70
2018-03-30T07:28:28.917Z,77.20
2018-03-30T07:30:56.368Z,77.00
2018-03-30T07:33:23.816Z,77.00
2018-03-30T07:35:51.298Z,77.00
2018-03-30T07:38:18.755Z,77.20
2018-03-30T07:40:46.212Z,77.60
2018-03-30T07:43:13.676Z,77.70
2018-03-30T07:45:41.121Z,77.60
2018-03-30T07:48:08.600Z,77.50
2018-03-30T07:50:36.054Z,77.50
2018-03-30T07:53:04.294Z,77.50
2018-03-30T07:55:31.745Z,77.50
2018-03-30T07:57:59.208Z,77.50
2018-03-30T08:00:26.691Z,77.10
2018-03-30T08:02:54.148Z,76.20
2018-03-30T08:05:21.628Z,75.40
2018-03-30T08:07:49.068Z,75.90
2018-03-30T08:10:17.289Z,73.80
2018-03-30T08:12:44.752Z,73.80
2018-03-30T08:15:12.221Z,72.30
2018-03-30T08:17:39.712Z,69.70
2018-03-30T08:20:07.176Z,67.20
2018-03-30T08:22:34.633Z,65.20
2018-03-30T08:25:02.144Z,64.00
2018-03-30T08:27:29.609Z,62.80
2018-03-30T08:29:57.062Z,64.80
2018-03-30T08:32:24.533Z,63.30
2018-03-30T08:34:51.976Z,59.50
2018-03-30T08:37:19.440Z,58.90
2018-03-30T08:39:46.916Z,58.90
2018-03-30T08:42:14.461Z,58.60
2018-03-30T08:44:42.681Z,56.70
2018-03-30T08:47:10.158Z,56.70
2018-03-30T08:49:37.635Z,57.00
2018-03-30T08:52:05.601Z,58.40
2018-03-30T08:54:33.077Z,57.20
2018-03-30T08:57:00.532Z,55.50
2018-03-30T08:59:28.001Z,57.40
2018-03-30T09:01:55.479Z,56.50
2018-03-30T09:04:22.925Z,56.30
2018-03-30T09:06:51.148Z,54.00
2018-03-30T09:09:18.605Z,54.00
2018-03-30T09:11:46.095Z,54.30
2018-03-30T09:14:13.552Z,54.30
2018-03-30T09:16:41.021Z,53.90
2018-03-30T09:19:08.472Z,53.80
2018-03-30T09:21:35.932Z,53.60
2018-03-30T09:24:03.377Z,51.40
2018-03-30T09:26:31.616Z,52.20
2018-03-30T09:28:59.085Z,52.20
2018-03-30T09:31:26.533Z,52.00
2018-03-30T09:33:54.016Z,50.80
2018-03-30T09:36:21.472Z,51.40
2018-03-30T09:38:48.952Z,53.30
2018-03-30T09:43:50.280Z,48.20
2018-03-30T09:46:17.759Z,50.50
2018-03-30T09:48:45.229Z,49.50
2018-03-30T09:51:12.670Z,49.40
2018-03-30T09:53:40.168Z,47.40
2018-03-30T09:56:07.608Z,47.10
2018-03-30T09:58:35.086Z,47.00
2018-03-30T10:01:18.361Z,45.40
2018-03-30T10:03:48.396Z,45.50
2018-03-30T10:06:15.862Z,44.70
2018-03-30T10:08:43.464Z,44.60
2018-03-30T10:11:12.491Z,46.10
2018-03-30T10:13:39.971Z,45.00
2018-03-30T10:16:07.465Z,43.50
2018-03-30T10:18:34.925Z,44.00
2018-03-30T10:21:02.425Z,45.10
2018-03-30T10:23:29.873Z,42.90
2018-03-30T10:25:57.359Z,42.80
2018-03-30T10:28:24.820Z,43.30
2018-03-30T10:30:52.268Z,40.70
2018-03-30T10:33:19.739Z,42.90
2018-03-30T10:35:47.226Z,39.40
2018-03-30T10:38:14.689Z,40.80
2018-03-30T10:40:42.160Z,40.20
2018-03-30T10:43:09.652Z,40.00
2018-03-30T10:45:37.109Z,37.20
2018-03-30T10:48:04.570Z,37.10
2018-03-30T10:50:32.048Z,37.80
2018-03-30T10:53:00.324Z,39.00
2018-03-30T10:55:27.768Z,38.90
2018-03-30T10:57:55.224Z,37.10
2018-03-30T11:00:22.708Z,37.50
2018-03-30T11:02:50.228Z,37.30
2018-03-30T11:05:17.719Z,36.90
2018-03-30T11:07:45.156Z,38.80
2018-03-30T11:10:12.630Z,39.30
2018-03-30T11:12:40.103Z,39.40
2018-03-30T11:15:08.324Z,38.70
2018-03-30T11:17:36.556Z,38.50
2018-03-30T11:20:04.015Z,38.50
2018-03-30T11:22:31.501Z,37.60
2018-03-30T11:24:58.956Z,36.40
2018-03-30T11:27:26.727Z,36.90
2018-03-30T11:29:54.200Z,36.60
2018-03-30T11:32:21.652Z,38.40
2018-03-30T11:34:49.124Z,38.10
2018-03-30T11:37:16.632Z,37.00
2018-03-30T11:39:44.219Z,38.80
2018-03-30T11:42:12.461Z,38.40
2018-03-30T11:44:39.991Z,38.40
2018-03-30T11:47:07.408Z,38.70
2018-03-30T11:49:34.864Z,37.70
2018-03-30T11:52:02.313Z,36.60
2018-03-30T11:54:29.776Z,35.40
2018-03-30T11:56:57.225Z,35.00
2018-03-30T11:59:25.480Z,35.00
2018-03-30T12:01:52.936Z,35.00
2018-03-30T12:04:20.431Z,35.50
2018-03-30T12:06:47.882Z,35.40
2018-03-30T12:09:15.332Z,36.90
2018-03-30T12:11:42.825Z,37.00
2018-03-30T12:14:10.354Z,37.10
2018-03-30T12:16:37.809Z,36.30
2018-03-30T12:19:05.287Z,36.30
2018-03-30T12:21:32.838Z,36.80
2018-03-30T12:24:00.348Z,36.90
2018-03-30T12:26:27.829Z,36.20
2018-03-30T12:28:55.312Z,36.60
2018-03-30T12:31:22.781Z,36.80
2018-03-30T12:33:50.243Z,35.40
2018-03-30T12:36:17.701Z,37.40
2018-03-30T12:38:45.237Z,37.10
2018-03-30T12:41:13.454Z,35.50
2018-03-30T12:43:40.910Z,35.50
2018-03-30T12:46:08.385Z,34.10
2018-03-30T12:48:35.855Z,34.50
2018-03-30T12:51:03.326Z,35.20
2018-03-30T12:53:30.781Z,35.10
2018-03-30T12:55:58.308Z,34.80
2018-03-30T12:58:25.748Z,35.30
2018-03-30T13:00:53.217Z,35.30
2018-03-30T13:03:20.713Z,34.30
2018-03-30T13:05:48.193Z,33.60
2018-03-30T13:08:15.648Z,34.40
2018-03-30T13:10:43.137Z,34.30
2018-03-30T13:13:10.629Z,34.80
2018-03-30T13:15:38.840Z,34.80
2018-03-30T13:18:06.311Z,34.70
2018-03-30T13:20:33.809Z,34.60
2018-03-30T13:23:01.266Z,34.70
2018-03-30T13:25:28.756Z,34.60
2018-03-30T13:27:56.200Z,34.20
2018-03-30T13:30:23.680Z,34.00
2018-03-30T13:32:51.137Z,34.20
2018-03-30T13:35:18.612Z,34.20
2018-03-30T13:37:46.076Z,33.80
2018-03-30T13:40:13.563Z,33.10
2018-03-30T13:42:41.035Z,33.50
2018-03-30T13:45:08.520Z,33.30
2018-03-30T13:47:35.998Z,33.00
2018-03-30T13:50:03.453Z,33.20
2018-03-30T13:52:53.457Z,33.10
2018-03-30T13:55:23.384Z,32.20
2018-03-30T13:57:55.629Z,31.70
2018-03-30T14:00:42.576Z,31.20
2018-03-30T14:03:17.598Z,32.50
2018-03-30T14:09:15.106Z,31.70
2018-03-30T14:11:48.532Z,32.60
2018-03-30T14:14:15.992Z,32.20
2018-03-30T14:16:45.130Z,32.40
2018-03-30T14:19:17.098Z,31.70
2018-03-30T14:24:41.435Z,30.60
2018-03-30T14:27:25.541Z,31.30
2018-03-30T14:30:05.225Z,30.90
2018-03-30T14:32:32.689Z,30.90
2018-03-30T14:35:04.965Z,31.20
2018-03-30T14:37:35.678Z,32.10
2018-03-30T14:40:16.703Z,32.10
2018-03-30T14:42:46.548Z,32.60
2018-03-30T14:48:26.696Z,32.80
2018-03-30T14:51:02.822Z,32.70
2018-03-30T14:53:34.831Z,32.10
2018-03-30T14:56:13.957Z,31.80
2018-03-30T14:58:46.182Z,31.80
2018-03-30T15:04:16.208Z,32.70
2018-03-30T15:06:44.432Z,33.90
2018-03-30T15:12:19.200Z,33.30
2018-03-30T15:14:49.387Z,33.30
2018-03-30T15:17:19.524Z,32.90
2018-03-30T15:19:49.711Z,33.10
2018-03-30T15:22:22.798Z,33.30
2018-03-30T15:24:55.680Z,33.70
2018-03-30T15:27:26.936Z,33.30
2018-03-30T15:30:05.990Z,33.80
2018-03-30T15:32:36.945Z,32.70
2018-03-30T15:35:05.182Z,32.50
2018-03-30T15:37:32.621Z,33.00
2018-03-30T15:40:15.813Z,34.20
2018-03-30T15:45:54.434Z,33.60
2018-03-30T15:48:22.659Z,34.30
2018-03-30T15:50:52.015Z,34.20
2018-03-30T15:53:18.979Z,33.30
2018-03-30T15:55:47.211Z,34.20
2018-03-30T15:58:14.712Z,34.20
2018-03-30T16:00:42.701Z,34.30
2018-03-30T16:03:10.170Z,34.40
2018-03-30T16:05:37.672Z,33.90
2018-03-30T16:08:05.917Z,34.10
2018-03-30T16:10:52.840Z,34.10
2018-03-30T16:13:20.352Z,33.60
2018-03-30T16:15:48.564Z,33.70
2018-03-30T16:18:16.022Z,33.50
2018-03-30T16:20:43.748Z,33.70
2018-03-30T16:23:10.724Z,33.70
2018-03-30T16:25:39.181Z,33.00
2018-03-30T16:28:06.171Z,32.90
2018-03-30T16:30:33.162Z,33.30
2018-03-30T16:33:00.884Z,33.30
2018-03-30T16:35:27.873Z,33.20
2018-03-30T16:37:54.877Z,33.40
2018-03-30T16:40:21.845Z,34.00
2018-03-30T16:42:48.810Z,33.70
2018-03-30T16:45:15.771Z,34.10
2018-03-30T16:47:42.745Z,34.00
2018-03-30T16:50:09.734Z,34.40
2018-03-30T16:52:37.508Z,34.90
2018-03-30T16:55:05.239Z,35.00
2018-03-30T16:57:32.192Z,35.00
2018-03-30T16:59:59.192Z,35.40
2018-03-30T17:02:26.142Z,35.50
2018-03-30T17:04:53.135Z,35.80
2018-03-30T17:07:20.131Z,36.00
2018-03-30T17:09:47.104Z,36.00
2018-03-30T17:12:14.082Z,36.50
2018-03-30T17:14:41.063Z,36.50
2018-03-30T17:17:08.793Z,36.80
2018-03-30T17:19:35.800Z,36.80
2018-03-30T17:22:02.764Z,36.80
2018-03-30T17:24:29.737Z,37.50
2018-03-30T17:26:56.700Z,37.50
2018-03-30T17:29:23.668Z,37.60
2018-03-30T17:31:50.646Z,37.80
2018-03-30T17:34:17.603Z,38.30
2018-03-30T17:36:44.586Z,38.50
2018-03-30T17:39:11.608Z,38.60
2018-03-30T17:41:38.565Z,39.10
2018-03-30T17:44:05.532Z,39.30
2018-03-30T17:46:32.514Z,39.40
2018-03-30T17:48:59.466Z,39.80
2018-03-30T17:51:26.448Z,39.70
2018-03-30T17:53:54.174Z,40.10
2018-03-30T17:56:21.144Z,40.10
2018-03-30T17:58:48.093Z,40.40
2018-03-30T18:01:15.079Z,40.50
2018-03-30T18:03:42.041Z,40.80
2018-03-30T18:06:09.834Z,41.00
2018-03-30T18:08:36.766Z,41.00
2018-03-30T18:11:03.732Z,41.00
2018-03-30T18:13:31.506Z,41.90
2018-03-30T18:15:58.452Z,41.90
2018-03-30T18:18:25.405Z,41.30
2018-03-30T18:20:52.377Z,41.10
2018-03-30T18:23:19.321Z,41.60
2018-03-30T18:25:47.169Z,41.80
2018-03-30T18:28:14.125Z,41.80
2018-03-30T18:30:41.080Z,42.00
2018-03-30T18:33:08.359Z,42.20
2018-03-30T18:35:35.326Z,41.70
2018-03-30T18:38:02.464Z,41.70
2018-03-30T18:40:29.423Z,41.90
2018-03-30T18:42:56.385Z,41.90
2018-03-30T18:45:23.344Z,41.70
2018-03-30T18:47:50.325Z,41.70
2018-03-30T18:50:17.471Z,41.80
2018-03-30T18:52:44.386Z,42.00
2018-03-30T18:55:11.345Z,41.70
2018-03-30T18:57:38.317Z,42.30
2018-03-30T19:00:05.281Z,42.40
2018-03-30T19:02:32.248Z,42.50
2018-03-30T19:04:59.196Z,42.70
2018-03-30T19:07:26.193Z,42.60
2018-03-30T19:09:53.161Z,42.50
2018-03-30T19:12:20.129Z,42.50
2018-03-30T19:14:47.991Z,43.30
2018-03-30T19:17:14.939Z,43.10
2018-03-30T19:19:41.902Z,42.70
2018-03-30T19:22:08.869Z,42.90
2018-03-30T19:24:35.831Z,42.60
2018-03-30T19:27:03.274Z,42.70
2018-03-30T19:29:30.233Z,43.10
2018-03-30T19:31:57.189Z,42.70
2018-03-30T19:34:24.148Z,43.40
2018-03-30T19:36:51.109Z,43.80
2018-03-30T19:39:18.263Z,44.90
2018-03-30T19:41:45.214Z,45.80
2018-03-30T19:44:12.168Z,48.10
2018-03-30T19:46:39.147Z,49.20
2018-03-30T19:49:06.106Z,50.90
2018-03-30T19:51:33.072Z,53.40
2018-03-30T19:54:00.042Z,54.90
2018-03-30T19:56:26.992Z,56.10
2018-03-30T19:58:53.968Z,57.00
2018-03-30T20:01:21.724Z,58.70
2018-03-30T20:03:48.888Z,58.60
2018-03-30T20:06:15.853Z,59.80
2018-03-30T20:08:42.821Z,61.10
2018-03-30T20:11:10.556Z,63.50
2018-03-30T20:13:37.524Z,63.40
2018-03-30T20:16:04.485Z,64.10
2018-03-30T20:18:31.432Z,65.20
2018-03-30T20:20:58.411Z,65.90
2018-03-30T20:23:25.374Z,65.50
2018-03-30T20:25:52.330Z,66.80
2018-03-30T20:28:19.336Z,67.50
2018-03-30T20:30:46.320Z,68.70
2018-03-30T20:33:13.300Z,69.90
2018-03-30T20:35:40.246Z,71.10
2018-03-30T20:38:07.204Z,71.70
2018-03-30T20:40:34.280Z,72.20
2018-03-30T20:43:01.240Z,72.30
2018-03-30T20:45:28.189Z,72.80
2018-03-30T20:47:55.171Z,74.00
2018-03-30T20:50:22.882Z,74.50
2018-03-30T20:52:49.850Z,74.20
2018-03-30T20:55:16.804Z,75.40
2018-03-30T20:57:43.768Z,75.80
2018-03-30T21:00:10.733Z,76.30
2018-03-30T21:02:37.906Z,76.70
2018-03-30T21:05:05.654Z,77.50
2018-03-30T21:07:32.628Z,77.40
2018-03-30T21:09:59.588Z,77.50
2018-03-30T21:12:26.550Z,77.70
2018-03-30T21:14:53.534Z,77.80
2018-03-30T21:17:20.510Z,78.20
2018-03-30T21:19:48.234Z,78.00
2018-03-30T21:22:15.208Z,78.00
2018-03-30T21:24:42.174Z,78.10
2018-03-30T21:27:09.141Z,78.20
2018-03-30T21:29:36.096Z,78.30
2018-03-30T21:32:03.063Z,78.30
2018-03-30T21:34:30.804Z,77.40
2018-03-30T21:36:57.743Z,77.40
2018-03-30T21:39:24.718Z,77.30
2018-03-30T21:41:51.684Z,77.50
2018-03-30T21:44:18.652Z,77.50
2018-03-30T21:46:45.620Z,77.80
2018-03-30T21:49:13.353Z,78.50
2018-03-30T21:51:40.315Z,77.90
2018-03-30T21:54:07.299Z,77.60
2018-03-30T21:56:34.259Z,77.60
2018-03-30T21:59:01.220Z,78.20
2018-03-30T22:01:28.229Z,78.10
2018-03-30T22:03:55.165Z,78.00
2018-03-30T22:06:22.894Z,77.30
2018-03-30T22:08:49.846Z,77.30
2018-03-30T22:11:16.830Z,77.10
2018-03-30T22:13:43.786Z,77.00
2018-03-30T22:16:10.778Z,76.60
2018-03-30T22:18:37.731Z,76.20
2018-03-30T22:21:04.687Z,75.90
2018-03-30T22:23:31.689Z,75.90
2018-03-30T22:25:58.641Z,74.90
2018-03-30T22:28:25.621Z,74.90
2018-03-30T22:30:52.588Z,74.80
2018-03-30T22:33:20.324Z,74.50
2018-03-30T22:35:48.087Z,74.20
2018-03-30T22:38:15.072Z,74.20
2018-03-30T22:40:42.059Z,73.80
2018-03-30T22:43:09.027Z,74.20
2018-03-30T22:45:36.788Z,73.90
2018-03-30T22:48:03.773Z,73.80
2018-03-30T22:50:31.489Z,73.80
2018-03-30T22:52:58.500Z,73.80
2018-03-30T22:55:26.238Z,73.80
2018-03-30T22:57:53.193Z,73.80
2018-03-30T23:00:20.876Z,74.40
2018-03-30T23:02:47.858Z,73.90
2018-03-30T23:05:14.828Z,74.10
2018-03-30T23:07:42.549Z,74.20
2018-03-30T23:10:09.534Z,74.10
2018-03-30T23:12:36.481Z,74.30
2018-03-30T23:15:03.457Z,74.50
2018-03-30T23:17:30.407Z,74.80
2018-03-30T23:19:57.560Z,74.60
2018-03-30T23:22:24.518Z,74.40
2018-03-30T23:24:51.470Z,74.80
2018-03-30T23:27:18.576Z,74.80
2018-03-30T23:29:46.294Z,74.80
2018-03-30T23:32:13.275Z,74.70
2018-03-30T23:34:40.248Z,74.50
2018-03-30T23:37:07.247Z,74.30
2018-03-30T23:39:35.142Z,73.80
2018-03-30T23:42:02.107Z,74.00
2018-03-30T23:44:29.073Z,74.00
2018-03-30T23:46:56.791Z,73.90
2018-03-30T23:49:24.516Z,74.20
2018-03-30T23:51:51.480Z,74.20
2018-03-30T23:54:18.431Z,73.90
2018-03-30T23:56:45.806Z,73.70
2018-03-30T23:59:12.758Z,73.90
